createdAt,value
2016-04-27T00:00:27.966Z,990.82
2016-04-27T00:01:27.937Z,990.88
2016-04-27T00:02:27.909Z,990.87
2016-04-27T00:03:27.880Z,990.84
2016-04-27T00:04:27.852Z,990.82
2016-04-27T00:05:27.807Z,990.81
2016-04-27T00:06:27.779Z,990.82
2016-04-27T00:07:27.750Z,990.85
2016-04-27T00:08:27.722Z,990.88
2016-04-27T00:09:27.693Z,990.87
2016-04-27T00:10:27.664Z,990.88
2016-04-27T00:11:27.636Z,990.9
2016-04-27T00:12:27.592Z,990.94
2016-04-27T00:13:27.564Z,990.89
2016-04-27T00:14:27.534Z,990.92
2016-04-27T00:15:27.506Z,990.94
2016-04-27T00:16:27.477Z,990.89
2016-04-27T00:17:27.449Z,990.88
2016-04-27T00:18:27.420Z,990.93
2016-04-27T00:19:27.375Z,990.9
2016-04-27T00:20:27.364Z,990.9
2016-04-27T00:21:27.475Z,990.87
2016-04-27T00:22:27.291Z,990.9
2016-04-27T00:23:27.262Z,990.9
2016-04-27T00:24:27.233Z,990.92
2016-04-27T00:25:27.205Z,990.96
2016-04-27T00:26:27.160Z,990.92
2016-04-27T00:27:27.132Z,990.88
2016-04-27T00:28:27.104Z,990.91
2016-04-27T00:29:27.075Z,990.9
2016-04-27T00:30:27.046Z,990.91
2016-04-27T00:31:27.018Z,990.91
2016-04-27T00:32:26.990Z,990.89
2016-04-27T00:33:26.946Z,990.96
2016-04-27T00:34:26.932Z,990.96
2016-04-27T00:35:26.888Z,990.95
2016-04-27T00:36:26.906Z,990.98
2016-04-27T00:37:26.831Z,990.98
2016-04-27T00:38:26.802Z,991
2016-04-27T00:39:26.773Z,991.02
2016-04-27T00:40:26.727Z,991.03
2016-04-27T00:41:26.699Z,991.06
2016-04-27T00:42:26.760Z,991
2016-04-27T00:43:26.643Z,991.09
2016-04-27T00:44:26.707Z,991.08
2016-04-27T00:45:26.574Z,991.03
2016-04-27T00:46:26.546Z,991.02
2016-04-27T00:47:26.517Z,991.07
2016-04-27T00:48:26.489Z,991.09
2016-04-27T00:49:26.460Z,991.08
2016-04-27T00:50:26.416Z,991.11
2016-04-27T00:51:26.403Z,991.04
2016-04-27T00:52:26.375Z,991.14
2016-04-27T00:53:26.330Z,991.09
2016-04-27T00:54:26.300Z,991.11
2016-04-27T00:55:26.273Z,991.16
2016-04-27T00:56:26.245Z,991.18
2016-04-27T00:57:26.216Z,991.12
2016-04-27T00:58:26.171Z,991.17
2016-04-27T00:59:26.144Z,991.18
2016-04-27T01:00:26.114Z,991.18
2016-04-27T01:01:26.086Z,991.2
2016-04-27T01:02:26.058Z,991.2
2016-04-27T01:03:26.029Z,991.24
2016-04-27T01:04:26.000Z,991.22
2016-04-27T01:05:25.971Z,991.25
2016-04-27T01:06:25.944Z,991.25
2016-04-27T01:07:25.899Z,991.26
2016-04-27T01:08:25.870Z,991.28
2016-04-27T01:09:25.842Z,991.31
2016-04-27T01:10:25.813Z,991.28
2016-04-27T01:11:25.784Z,991.32
2016-04-27T01:12:25.756Z,991.32
2016-04-27T01:13:25.712Z,991.33
2016-04-27T01:14:25.684Z,991.35
2016-04-27T01:15:25.670Z,991.3
2016-04-27T01:16:25.626Z,991.3
2016-04-27T01:17:25.613Z,991.31
2016-04-27T01:18:25.569Z,991.24
2016-04-27T01:19:25.540Z,991.24
2016-04-27T01:20:25.512Z,991.24
2016-04-27T01:21:25.483Z,991.2
2016-04-27T01:22:25.460Z,991.22
2016-04-27T01:23:25.418Z,991.24
2016-04-27T01:24:25.389Z,991.2
2016-04-27T01:25:25.345Z,991.22
2016-04-27T01:26:25.333Z,991.2
2016-04-27T01:27:25.288Z,991.22
2016-04-27T01:28:25.260Z,991.23
2016-04-27T01:29:25.231Z,991.22
2016-04-27T01:30:25.203Z,991.22
2016-04-27T01:31:25.174Z,991.22
2016-04-27T01:32:25.146Z,991.24
2016-04-27T01:33:25.117Z,991.21
2016-04-27T01:34:25.074Z,991.2
2016-04-27T01:35:25.060Z,991.23
2016-04-27T01:36:25.016Z,991.23
2016-04-27T01:37:24.988Z,991.26
2016-04-27T01:38:24.959Z,991.23
2016-04-27T01:39:24.930Z,991.22
2016-04-27T01:40:24.901Z,991.23
2016-04-27T01:41:24.873Z,991.24
2016-04-27T01:42:24.845Z,991.26
2016-04-27T01:43:24.800Z,991.3
2016-04-27T01:44:24.771Z,991.32
2016-04-27T01:45:24.743Z,991.32
2016-04-27T01:46:24.715Z,991.3
2016-04-27T01:47:24.686Z,991.34
2016-04-27T01:48:24.657Z,991.34
2016-04-27T01:49:24.629Z,991.36
2016-04-27T01:50:24.586Z,991.36
2016-04-27T01:51:24.557Z,991.38
2016-04-27T01:52:24.529Z,991.35
2016-04-27T01:53:24.501Z,991.39
2016-04-27T01:54:24.471Z,991.43
2016-04-27T01:55:24.458Z,991.41
2016-04-27T01:56:24.415Z,991.39
2016-04-27T01:57:24.370Z,991.41
2016-04-27T01:58:24.342Z,991.34
2016-04-27T01:59:24.312Z,991.42
2016-04-27T02:00:24.284Z,991.38
2016-04-27T02:01:24.272Z,991.42
2016-04-27T02:02:24.228Z,991.38
2016-04-27T02:03:24.198Z,991.38
2016-04-27T02:04:24.170Z,991.44
2016-04-27T02:05:24.142Z,991.39
2016-04-27T02:06:24.223Z,991.4
2016-04-27T02:07:24.069Z,991.43
2016-04-27T02:08:24.041Z,991.39
2016-04-27T02:09:24.012Z,991.45
2016-04-27T02:10:23.984Z,991.46
2016-04-27T02:11:23.955Z,991.45
2016-04-27T02:12:23.926Z,991.44
2016-04-27T02:13:23.897Z,991.45
2016-04-27T02:14:23.869Z,991.48
2016-04-27T02:15:23.824Z,991.44
2016-04-27T02:16:23.796Z,991.45
2016-04-27T02:17:23.768Z,991.5
2016-04-27T02:18:23.739Z,991.51
2016-04-27T02:19:23.710Z,991.5
2016-04-27T02:20:23.682Z,991.5
2016-04-27T02:21:23.654Z,991.5
2016-04-27T02:22:23.610Z,991.53
2016-04-27T02:23:23.581Z,991.52
2016-04-27T02:24:23.552Z,991.5
2016-04-27T02:25:23.524Z,991.52
2016-04-27T02:26:23.496Z,991.54
2016-04-27T02:27:23.466Z,991.52
2016-04-27T02:28:23.437Z,991.54
2016-04-27T02:29:23.410Z,991.51
2016-04-27T02:30:23.365Z,991.54
2016-04-27T02:31:23.336Z,991.56
2016-04-27T02:32:23.308Z,991.56
2016-04-27T02:33:23.279Z,991.52
2016-04-27T02:34:23.251Z,991.58
2016-04-27T02:35:23.222Z,991.57
2016-04-27T02:36:23.195Z,991.54
2016-04-27T02:37:23.164Z,991.51
2016-04-27T02:38:23.137Z,991.55
2016-04-27T02:39:23.092Z,991.54
2016-04-27T02:40:23.064Z,991.51
2016-04-27T02:41:23.036Z,991.54
2016-04-27T02:42:23.015Z,991.55
2016-04-27T02:43:23.027Z,991.55
2016-04-27T02:44:23.040Z,991.53
2016-04-27T02:45:23.055Z,991.5
2016-04-27T02:46:23.068Z,991.49
2016-04-27T02:47:23.075Z,991.53
2016-04-27T02:48:23.047Z,991.54
2016-04-27T02:49:23.034Z,991.5
2016-04-27T02:50:23.022Z,991.48
2016-04-27T02:51:23.414Z,991.55
2016-04-27T02:52:22.992Z,991.53
2016-04-27T02:53:22.970Z,991.52
2016-04-27T02:54:22.946Z,991.55
2016-04-27T02:55:22.924Z,991.53
2016-04-27T02:56:22.884Z,991.54
2016-04-27T02:57:22.861Z,991.57
2016-04-27T02:58:22.833Z,991.57
2016-04-27T02:59:22.808Z,991.59
2016-04-27T03:00:22.781Z,991.6
2016-04-27T03:01:22.754Z,991.6
2016-04-27T03:02:22.727Z,991.62
2016-04-27T03:03:22.746Z,991.61
2016-04-27T03:04:22.656Z,991.67
2016-04-27T03:05:22.644Z,991.62
2016-04-27T03:06:22.616Z,991.63
2016-04-27T03:07:22.572Z,991.6
2016-04-27T03:08:22.544Z,991.64
2016-04-27T03:09:22.517Z,991.61
2016-04-27T03:10:22.488Z,991.57
2016-04-27T03:11:22.459Z,991.58
2016-04-27T03:12:22.417Z,991.59
2016-04-27T03:13:22.388Z,991.61
2016-04-27T03:14:22.359Z,991.58
2016-04-27T03:15:22.330Z,991.58
2016-04-27T03:16:22.302Z,991.61
2016-04-27T03:17:22.273Z,991.58
2016-04-27T03:18:22.244Z,991.59
2016-04-27T03:19:22.216Z,991.6
2016-04-27T03:20:22.188Z,991.62
2016-04-27T03:21:22.144Z,991.59
2016-04-27T03:22:22.130Z,991.55
2016-04-27T03:23:22.086Z,991.56
2016-04-27T03:24:22.058Z,991.58
2016-04-27T03:25:22.030Z,991.6
2016-04-27T03:26:22.000Z,991.61
2016-04-27T03:27:21.971Z,991.62
2016-04-27T03:28:21.944Z,991.61
2016-04-27T03:29:21.915Z,991.6
2016-04-27T03:30:21.886Z,991.59
2016-04-27T03:31:21.843Z,991.6
2016-04-27T03:32:21.829Z,991.59
2016-04-27T03:33:21.801Z,991.61
2016-04-27T03:34:21.757Z,991.57
2016-04-27T03:35:21.728Z,991.61
2016-04-27T03:36:21.715Z,991.58
2016-04-27T03:37:21.671Z,991.64
2016-04-27T03:38:21.642Z,991.62
2016-04-27T03:39:21.614Z,991.58
2016-04-27T03:40:21.582Z,991.57
2016-04-27T03:41:21.554Z,991.56
2016-04-27T03:42:21.509Z,991.58
2016-04-27T03:43:21.497Z,991.58
2016-04-27T03:44:21.453Z,991.56
2016-04-27T03:45:21.423Z,991.53
2016-04-27T03:46:21.395Z,991.53
2016-04-27T03:47:21.367Z,991.54
2016-04-27T03:48:21.339Z,991.55
2016-04-27T03:49:21.309Z,991.57
2016-04-27T03:50:21.281Z,991.54
2016-04-27T03:51:21.252Z,991.58
2016-04-27T03:52:21.225Z,991.6
2016-04-27T03:53:21.211Z,991.59
2016-04-27T03:54:21.152Z,991.63
2016-04-27T03:55:21.139Z,991.59
2016-04-27T03:56:21.110Z,991.61
2016-04-27T03:57:21.066Z,991.62
2016-04-27T03:58:21.037Z,991.56
2016-04-27T03:59:21.024Z,991.53
2016-04-27T04:00:20.980Z,991.59
2016-04-27T04:01:20.951Z,991.55
2016-04-27T04:02:20.923Z,991.52
2016-04-27T04:03:20.894Z,991.58
2016-04-27T04:04:20.866Z,991.55
2016-04-27T04:05:20.838Z,991.55
2016-04-27T04:06:20.810Z,991.59
2016-04-27T04:07:20.780Z,991.57
2016-04-27T04:08:20.752Z,991.58
2016-04-27T04:09:20.724Z,991.53
2016-04-27T04:10:20.696Z,991.54
2016-04-27T04:11:20.651Z,991.52
2016-04-27T04:12:20.623Z,991.54
2016-04-27T04:13:20.594Z,991.53
2016-04-27T04:14:20.565Z,991.5
2016-04-27T04:15:20.537Z,991.45
2016-04-27T04:16:20.508Z,991.48
2016-04-27T04:17:20.479Z,991.48
2016-04-27T04:18:20.452Z,991.47
2016-04-27T04:19:20.423Z,991.49
2016-04-27T04:20:20.394Z,991.47
2016-04-27T04:21:20.897Z,991.43
2016-04-27T04:22:20.325Z,991.48
2016-04-27T04:23:20.297Z,991.47
2016-04-27T04:24:20.268Z,991.52
2016-04-27T04:25:20.239Z,991.46
2016-04-27T04:26:20.210Z,991.5
2016-04-27T04:27:20.183Z,991.5
2016-04-27T04:28:20.154Z,991.46
2016-04-27T04:29:20.125Z,991.48
2016-04-27T04:30:20.097Z,991.52
2016-04-27T04:31:20.069Z,991.52
2016-04-27T04:32:20.040Z,991.48
2016-04-27T04:33:20.011Z,991.48
2016-04-27T04:34:19.967Z,991.47
2016-04-27T04:35:19.938Z,991.46
2016-04-27T04:36:19.909Z,991.44
2016-04-27T04:37:22.365Z,991.42
2016-04-27T04:38:19.853Z,991.44
2016-04-27T04:39:19.840Z,991.46
2016-04-27T04:40:19.795Z,991.46
2016-04-27T04:41:19.767Z,991.44
2016-04-27T04:42:19.739Z,991.4
2016-04-27T04:43:19.709Z,991.37
2016-04-27T04:44:19.682Z,991.33
2016-04-27T04:45:19.653Z,991.36
2016-04-27T04:46:19.625Z,991.35
2016-04-27T04:47:19.580Z,991.37
2016-04-27T04:48:19.551Z,991.36
2016-04-27T04:49:19.523Z,991.33
2016-04-27T04:50:19.494Z,991.38
2016-04-27T04:51:19.481Z,991.39
2016-04-27T04:52:19.437Z,991.38
2016-04-27T04:53:19.408Z,991.39
2016-04-27T04:54:19.381Z,991.35
2016-04-27T04:55:19.352Z,991.37
2016-04-27T04:56:21.307Z,991.35
2016-04-27T04:57:19.294Z,991.37
2016-04-27T04:58:19.266Z,991.33
2016-04-27T04:59:19.237Z,991.33
2016-04-27T05:00:19.208Z,991.33
2016-04-27T05:01:19.181Z,991.31
2016-04-27T05:02:19.152Z,991.3
2016-04-27T05:03:19.108Z,991.32
2016-04-27T05:04:19.079Z,991.33
2016-04-27T05:05:19.051Z,991.31
2016-04-27T05:06:19.022Z,991.31
2016-04-27T05:07:18.993Z,991.35
2016-04-27T05:08:18.965Z,991.33
2016-04-27T05:09:18.936Z,991.33
2016-04-27T05:10:18.907Z,991.37
2016-04-27T05:11:18.879Z,991.32
2016-04-27T05:12:18.851Z,991.3
2016-04-27T05:13:18.823Z,991.31
2016-04-27T05:14:18.793Z,991.32
2016-04-27T05:15:18.765Z,991.35
2016-04-27T05:16:18.736Z,991.3
2016-04-27T05:17:18.708Z,991.34
2016-04-27T05:18:18.663Z,991.29
2016-04-27T05:19:18.634Z,991.33
2016-04-27T05:20:18.606Z,991.34
2016-04-27T05:21:18.578Z,991.36
2016-04-27T05:22:18.550Z,991.3
2016-04-27T05:23:18.520Z,991.29
2016-04-27T05:24:18.492Z,991.28
2016-04-27T05:25:18.463Z,991.26
2016-04-27T05:26:18.435Z,991.23
2016-04-27T05:27:18.406Z,991.24
2016-04-27T05:28:18.377Z,991.29
2016-04-27T05:29:18.350Z,991.25
2016-04-27T05:30:18.321Z,991.27
2016-04-27T05:31:18.292Z,991.27
2016-04-27T05:32:18.264Z,991.31
2016-04-27T05:33:18.235Z,991.28
2016-04-27T05:34:18.207Z,991.32
2016-04-27T05:35:18.177Z,991.3
2016-04-27T05:36:18.149Z,991.34
2016-04-27T05:37:18.105Z,991.3
2016-04-27T05:38:18.077Z,991.29
2016-04-27T05:39:18.048Z,991.29
2016-04-27T05:40:18.020Z,991.31
2016-04-27T05:41:17.991Z,991.3
2016-04-27T05:42:17.962Z,991.26
2016-04-27T05:43:17.934Z,991.26
2016-04-27T05:44:17.905Z,991.27
2016-04-27T05:45:17.892Z,991.28
2016-04-27T05:46:17.848Z,991.28
2016-04-27T05:47:17.820Z,991.26
2016-04-27T05:48:17.792Z,991.23
2016-04-27T05:49:17.762Z,991.25
2016-04-27T05:50:17.734Z,991.2
2016-04-27T05:51:17.705Z,991.32
2016-04-27T05:52:17.755Z,991.33
2016-04-27T05:53:17.648Z,991.39
2016-04-27T05:54:17.620Z,991.35
2016-04-27T05:55:17.575Z,991.37
2016-04-27T05:56:17.563Z,991.33
2016-04-27T05:57:17.534Z,991.42
2016-04-27T05:58:17.490Z,991.37
2016-04-27T05:59:17.477Z,991.45
2016-04-27T06:00:17.433Z,991.41
2016-04-27T06:01:17.404Z,991.38
2016-04-27T06:02:17.375Z,991.4
2016-04-27T06:03:17.347Z,991.43
2016-04-27T06:04:17.335Z,991.51
2016-04-27T06:05:17.290Z,991.49
2016-04-27T06:06:17.261Z,991.45
2016-04-27T06:07:17.232Z,991.44
2016-04-27T06:08:17.204Z,991.46
2016-04-27T06:09:17.176Z,991.51
2016-04-27T06:10:17.146Z,991.54
2016-04-27T06:11:17.119Z,991.5
2016-04-27T06:12:17.090Z,991.56
2016-04-27T06:13:17.062Z,991.57
2016-04-27T06:14:17.033Z,991.57
2016-04-27T06:15:16.989Z,991.55
2016-04-27T06:16:16.960Z,991.59
2016-04-27T06:17:16.931Z,991.56
2016-04-27T06:18:16.903Z,991.56
2016-04-27T06:19:16.875Z,991.58
2016-04-27T06:20:16.845Z,991.57
2016-04-27T06:21:16.818Z,991.58
2016-04-27T06:22:16.961Z,991.56
2016-04-27T06:23:16.761Z,991.53
2016-04-27T06:24:16.732Z,991.6
2016-04-27T06:25:16.703Z,991.56
2016-04-27T06:26:16.675Z,991.62
2016-04-27T06:27:16.646Z,991.58
2016-04-27T06:28:16.617Z,991.71
2016-04-27T06:29:16.589Z,991.69
2016-04-27T06:30:16.560Z,991.7
2016-04-27T06:31:16.532Z,991.76
2016-04-27T06:32:16.503Z,991.7
2016-04-27T06:33:16.474Z,991.74
2016-04-27T06:34:16.446Z,991.72
2016-04-27T06:35:16.418Z,991.71
2016-04-27T06:36:16.388Z,991.69
2016-04-27T06:37:16.360Z,991.67
2016-04-27T06:38:16.331Z,991.75
2016-04-27T06:39:16.304Z,991.75
2016-04-27T06:40:16.274Z,991.78
2016-04-27T06:41:16.246Z,991.78
2016-04-27T06:42:16.218Z,991.81
2016-04-27T06:43:16.189Z,991.81
2016-04-27T06:44:16.160Z,991.79
2016-04-27T06:45:16.132Z,991.83
2016-04-27T06:46:16.103Z,991.81
2016-04-27T06:47:16.075Z,991.8
2016-04-27T06:48:16.046Z,991.84
2016-04-27T06:49:16.018Z,991.87
2016-04-27T06:50:15.990Z,991.84
2016-04-27T06:51:15.961Z,991.88
2016-04-27T06:52:15.931Z,991.84
2016-04-27T06:53:15.888Z,991.87
2016-04-27T06:54:15.859Z,991.9
2016-04-27T06:55:15.847Z,991.93
2016-04-27T06:56:16.552Z,991.91
2016-04-27T06:57:15.773Z,991.91
2016-04-27T06:58:15.761Z,991.91
2016-04-27T06:59:15.717Z,991.91
2016-04-27T07:00:15.688Z,991.91
2016-04-27T07:01:15.659Z,991.93
2016-04-27T07:02:15.631Z,992
2016-04-27T07:03:15.602Z,991.98
2016-04-27T07:04:15.589Z,991.98
2016-04-27T07:05:15.544Z,992.02
2016-04-27T07:06:15.516Z,992.01
2016-04-27T07:07:15.488Z,992.03
2016-04-27T07:08:15.460Z,992.02
2016-04-27T07:09:15.447Z,992.07
2016-04-27T07:10:15.402Z,992.1
2016-04-27T07:11:15.390Z,992.18
2016-04-27T07:12:15.346Z,992.2
2016-04-27T07:13:15.316Z,992.16
2016-04-27T07:14:15.304Z,992.23
2016-04-27T07:15:15.259Z,992.3
2016-04-27T07:16:15.246Z,992.39
2016-04-27T07:17:15.218Z,992.4
2016-04-27T07:18:15.174Z,992.43
2016-04-27T07:19:15.146Z,992.5
2016-04-27T07:20:15.132Z,992.5
2016-04-27T07:21:15.104Z,992.56
2016-04-27T07:22:15.075Z,992.56
2016-04-27T07:23:17.750Z,992.65
2016-04-27T07:24:15.002Z,992.67
2016-04-27T07:25:14.990Z,992.72
2016-04-27T07:26:14.961Z,992.74
2016-04-27T07:27:14.916Z,992.81
2016-04-27T07:28:14.904Z,992.86
2016-04-27T07:29:14.875Z,992.84
2016-04-27T07:30:14.846Z,992.9
2016-04-27T07:31:14.819Z,992.87
2016-04-27T07:32:14.789Z,992.93
2016-04-27T07:33:14.761Z,992.89
2016-04-27T07:34:14.733Z,992.9
2016-04-27T07:35:14.704Z,992.94
2016-04-27T07:36:14.675Z,992.97
2016-04-27T07:37:14.647Z,993.02
2016-04-27T07:38:14.618Z,993.02
2016-04-27T07:39:14.590Z,992.98
2016-04-27T07:40:14.561Z,992.99
2016-04-27T07:41:14.532Z,993.06
2016-04-27T07:42:14.504Z,993.11
2016-04-27T07:43:14.476Z,993.09
2016-04-27T07:44:14.447Z,993.13
2016-04-27T07:45:14.418Z,993.18
2016-04-27T07:46:14.389Z,993.17
2016-04-27T07:47:14.362Z,993.24
2016-04-27T07:48:14.333Z,993.28
2016-04-27T07:49:14.304Z,993.32
2016-04-27T07:50:14.276Z,993.38
2016-04-27T07:51:14.247Z,993.38
2016-04-27T07:52:14.546Z,993.41
2016-04-27T07:53:14.190Z,993.46
2016-04-27T07:54:14.161Z,993.47
2016-04-27T07:55:14.133Z,993.43
2016-04-27T07:56:14.104Z,993.57
2016-04-27T07:57:14.075Z,993.54
2016-04-27T07:58:14.047Z,993.56
2016-04-27T07:59:14.018Z,993.63
2016-04-27T08:00:13.989Z,993.67
2016-04-27T08:01:13.961Z,993.68
2016-04-27T08:02:13.933Z,993.7
2016-04-27T08:03:13.905Z,993.66
2016-04-27T08:04:13.891Z,993.81
2016-04-27T08:05:13.863Z,993.75
2016-04-27T08:06:13.833Z,993.83
2016-04-27T08:07:16.478Z,993.77
2016-04-27T08:08:14.058Z,993.85
2016-04-27T08:09:14.233Z,993.81
2016-04-27T08:10:13.719Z,993.77
2016-04-27T08:11:13.707Z,993.86
2016-04-27T08:12:13.679Z,993.9
2016-04-27T08:13:13.649Z,993.94
2016-04-27T08:14:13.637Z,993.96
2016-04-27T08:15:13.608Z,993.87
2016-04-27T08:16:13.580Z,993.9
2016-04-27T08:17:13.567Z,993.95
2016-04-27T08:18:13.538Z,993.94
2016-04-27T08:19:13.525Z,993.96
2016-04-27T08:20:13.497Z,993.92
2016-04-27T08:21:13.484Z,993.96
2016-04-27T08:22:15.299Z,993.98
2016-04-27T08:23:13.443Z,994.02
2016-04-27T08:24:13.429Z,993.98
2016-04-27T08:25:13.401Z,993.99
2016-04-27T08:26:13.387Z,994.05
2016-04-27T08:27:13.375Z,994.02
2016-04-27T08:28:13.346Z,994.1
2016-04-27T08:29:14.771Z,994.06
2016-04-27T08:30:14.539Z,994.09
2016-04-27T08:31:14.292Z,994.11
2016-04-27T08:32:13.279Z,994.08
2016-04-27T08:33:14.482Z,994.16
2016-04-27T08:34:14.611Z,994.18
2016-04-27T08:35:14.488Z,994.14
2016-04-27T08:36:14.615Z,994.25
2016-04-27T08:37:14.462Z,994.16
2016-04-27T08:38:15.199Z,994.21
2016-04-27T08:39:14.530Z,994.26
2016-04-27T08:40:14.532Z,994.25
2016-04-27T08:41:14.410Z,994.29
2016-04-27T08:42:14.507Z,994.25
2016-04-27T08:43:14.352Z,994.2
2016-04-27T08:44:14.387Z,994.26
2016-04-27T08:45:14.357Z,994.29
2016-04-27T08:46:14.424Z,994.3
2016-04-27T08:47:14.332Z,994.21
2016-04-27T08:48:12.928Z,994.25
2016-04-27T08:49:14.291Z,994.27
2016-04-27T08:50:13.699Z,994.3
2016-04-27T08:51:13.843Z,994.3
2016-04-27T08:52:14.034Z,994.36
2016-04-27T08:53:12.817Z,994.3
2016-04-27T08:54:14.039Z,994.27
2016-04-27T08:55:14.087Z,994.33
2016-04-27T08:56:13.982Z,994.37
2016-04-27T08:57:12.734Z,994.27
2016-04-27T08:58:12.720Z,994.26
2016-04-27T08:59:12.709Z,994.33
2016-04-27T09:00:12.664Z,994.31
2016-04-27T09:01:12.636Z,994.32
2016-04-27T09:02:12.622Z,994.34
2016-04-27T09:03:12.594Z,994.39
2016-04-27T09:04:12.581Z,994.37
2016-04-27T09:05:12.553Z,994.38
2016-04-27T09:06:12.539Z,994.39
2016-04-27T09:07:13.464Z,994.45
2016-04-27T09:08:13.170Z,994.47
2016-04-27T09:09:12.454Z,994.47
2016-04-27T09:10:12.441Z,994.48
2016-04-27T09:11:12.413Z,994.4
2016-04-27T09:12:12.384Z,994.41
2016-04-27T09:13:12.371Z,994.48
2016-04-27T09:14:12.357Z,994.48
2016-04-27T09:15:12.329Z,994.52
2016-04-27T09:16:12.301Z,994.44
2016-04-27T09:17:12.272Z,994.44
2016-04-27T09:18:12.260Z,994.41
2016-04-27T09:19:12.231Z,994.41
2016-04-27T09:20:12.202Z,994.47
2016-04-27T09:21:12.190Z,994.5
2016-04-27T09:22:12.160Z,994.54
2016-04-27T09:23:12.132Z,994.54
2016-04-27T09:24:12.104Z,994.52
2016-04-27T09:25:12.090Z,994.49
2016-04-27T09:26:12.062Z,994.51
2016-04-27T09:27:12.033Z,994.59
2016-04-27T09:28:12.021Z,994.51
2016-04-27T09:29:11.992Z,994.6
2016-04-27T09:30:11.964Z,994.53
2016-04-27T09:31:11.934Z,994.57
2016-04-27T09:32:11.922Z,994.59
2016-04-27T09:33:11.894Z,994.6
2016-04-27T09:34:11.881Z,994.6
2016-04-27T09:35:11.852Z,994.62
2016-04-27T09:36:11.823Z,994.61
2016-04-27T09:37:11.795Z,994.65
2016-04-27T09:38:12.016Z,994.68
2016-04-27T09:39:11.753Z,994.71
2016-04-27T09:40:11.724Z,994.72
2016-04-27T09:41:11.697Z,994.66
2016-04-27T09:42:11.683Z,994.72
2016-04-27T09:43:11.655Z,994.71
2016-04-27T09:44:11.627Z,994.72
2016-04-27T09:45:11.597Z,994.73
2016-04-27T09:46:11.569Z,994.71
2016-04-27T09:47:11.557Z,994.78
2016-04-27T09:48:11.527Z,994.76
2016-04-27T09:49:11.499Z,994.8
2016-04-27T09:50:11.486Z,994.82
2016-04-27T09:51:11.458Z,994.73
2016-04-27T09:52:11.445Z,994.71
2016-04-27T09:53:11.401Z,994.83
2016-04-27T09:54:11.388Z,994.77
2016-04-27T09:55:11.359Z,994.72
2016-04-27T09:56:11.330Z,994.84
2016-04-27T09:57:11.318Z,994.74
2016-04-27T09:58:11.289Z,994.84
2016-04-27T09:59:11.260Z,994.83
2016-04-27T10:00:11.263Z,994.8
2016-04-27T10:01:11.219Z,994.8
2016-04-27T10:02:11.190Z,994.77
2016-04-27T10:03:11.162Z,994.85
2016-04-27T10:04:11.148Z,994.74
2016-04-27T10:05:11.120Z,994.82
2016-04-27T10:06:11.092Z,994.8
2016-04-27T10:07:11.079Z,994.82
2016-04-27T10:08:11.253Z,994.83
2016-04-27T10:09:11.036Z,994.86
2016-04-27T10:10:11.009Z,994.88
2016-04-27T10:11:10.980Z,994.9
2016-04-27T10:12:10.966Z,994.93
2016-04-27T10:13:10.939Z,994.99
2016-04-27T10:14:10.910Z,995.02
2016-04-27T10:15:10.882Z,994.96
2016-04-27T10:16:10.868Z,995
2016-04-27T10:17:10.841Z,994.99
2016-04-27T10:18:10.811Z,995
2016-04-27T10:19:10.783Z,995
2016-04-27T10:20:10.771Z,994.99
2016-04-27T10:21:10.741Z,995.03
2016-04-27T10:22:10.733Z,995.03
2016-04-27T10:23:10.701Z,995.08
2016-04-27T10:24:10.673Z,995.17
2016-04-27T10:25:10.644Z,995.1
2016-04-27T10:26:10.632Z,995.14
2016-04-27T10:27:10.603Z,995.09
2016-04-27T10:28:10.575Z,995.22
2016-04-27T10:29:10.563Z,995.11
2016-04-27T10:30:10.534Z,995.12
2016-04-27T10:31:10.506Z,995.22
2016-04-27T10:32:10.476Z,995.15
2016-04-27T10:33:10.464Z,995.15
2016-04-27T10:34:10.436Z,995.11
2016-04-27T10:35:10.423Z,995.14
2016-04-27T10:36:10.394Z,995.19
2016-04-27T10:37:10.365Z,995.21
2016-04-27T10:38:10.447Z,995.24
2016-04-27T10:39:10.324Z,995.19
2016-04-27T10:40:10.311Z,995.26
2016-04-27T10:41:10.282Z,995.27
2016-04-27T10:42:10.254Z,995.25
2016-04-27T10:43:10.225Z,995.29
2016-04-27T10:44:10.213Z,995.26
2016-04-27T10:45:10.183Z,995.23
2016-04-27T10:46:10.171Z,995.27
2016-04-27T10:47:10.142Z,995.31
2016-04-27T10:48:10.130Z,995.29
2016-04-27T10:49:10.101Z,995.27
2016-04-27T10:50:10.072Z,995.31
2016-04-27T10:51:10.044Z,995.28
2016-04-27T10:52:10.030Z,995.27
2016-04-27T10:53:10.002Z,995.3
2016-04-27T10:54:09.974Z,995.3
2016-04-27T10:55:09.961Z,995.31
2016-04-27T10:56:09.932Z,995.3
2016-04-27T10:57:09.918Z,995.29
2016-04-27T10:58:09.891Z,995.34
2016-04-27T10:59:09.862Z,995.33
2016-04-27T11:00:09.838Z,995.39
2016-04-27T11:01:09.824Z,995.36
2016-04-27T11:02:09.796Z,995.36
2016-04-27T11:03:09.783Z,995.36
2016-04-27T11:04:09.770Z,995.4
2016-04-27T11:05:09.727Z,995.42
2016-04-27T11:06:09.713Z,995.38
2016-04-27T11:07:09.684Z,995.39
2016-04-27T11:08:09.672Z,995.45
2016-04-27T11:09:09.643Z,995.47
2016-04-27T11:10:09.630Z,995.43
2016-04-27T11:11:09.602Z,995.48
2016-04-27T11:12:09.573Z,995.56
2016-04-27T11:13:09.560Z,995.5
2016-04-27T11:14:09.532Z,995.55
2016-04-27T11:15:09.518Z,995.61
2016-04-27T11:16:09.490Z,995.6
2016-04-27T11:17:09.461Z,995.61
2016-04-27T11:18:09.449Z,995.6
2016-04-27T11:19:09.420Z,995.59
2016-04-27T11:20:09.392Z,995.64
2016-04-27T11:21:09.378Z,995.65
2016-04-27T11:22:09.365Z,995.66
2016-04-27T11:23:09.337Z,995.67
2016-04-27T11:24:09.308Z,995.67
2016-04-27T11:25:09.280Z,995.7
2016-04-27T11:26:09.267Z,995.73
2016-04-27T11:27:09.238Z,995.77
2016-04-27T11:28:09.225Z,995.8
2016-04-27T11:29:09.197Z,995.85
2016-04-27T11:30:09.184Z,995.83
2016-04-27T11:31:09.156Z,995.84
2016-04-27T11:32:09.127Z,995.85
2016-04-27T11:33:09.114Z,995.9
2016-04-27T11:34:09.085Z,995.91
2016-04-27T11:35:09.072Z,995.97
2016-04-27T11:36:09.044Z,995.92
2016-04-27T11:37:09.031Z,995.93
2016-04-27T11:38:09.003Z,995.92
2016-04-27T11:39:08.989Z,995.91
2016-04-27T11:40:08.960Z,996.01
2016-04-27T11:41:08.948Z,995.94
2016-04-27T11:42:08.919Z,995.96
2016-04-27T11:43:08.891Z,995.94
2016-04-27T11:44:08.877Z,996.01
2016-04-27T11:45:08.849Z,995.99
2016-04-27T11:46:08.836Z,996.05
2016-04-27T11:47:08.807Z,996.09
2016-04-27T11:48:08.779Z,996.09
2016-04-27T11:49:08.793Z,996.14
2016-04-27T11:50:08.810Z,996.11
2016-04-27T11:51:08.842Z,996.14
2016-04-27T11:52:08.858Z,996.14
2016-04-27T11:53:08.890Z,996.2
2016-04-27T11:54:08.889Z,996.18
2016-04-27T11:55:08.893Z,996.17
2016-04-27T11:56:08.974Z,996.13
2016-04-27T11:57:08.867Z,996.1
2016-04-27T11:58:08.855Z,996.14
2016-04-27T11:59:08.851Z,996.11
2016-04-27T12:00:08.829Z,996.13
2016-04-27T12:01:08.822Z,996.12
2016-04-27T12:02:08.798Z,996.12
2016-04-27T12:03:08.776Z,996.14
2016-04-27T12:04:08.767Z,996.15
2016-04-27T12:05:08.741Z,996.18
2016-04-27T12:06:08.731Z,996.21
2016-04-27T12:07:08.703Z,996.21
2016-04-27T12:08:10.646Z,996.16
2016-04-27T12:09:09.759Z,996.18
2016-04-27T12:10:08.654Z,996.18
2016-04-27T12:11:08.611Z,996.23
2016-04-27T12:12:08.598Z,996.26
2016-04-27T12:13:08.586Z,996.22
2016-04-27T12:14:08.558Z,996.25
2016-04-27T12:15:08.530Z,996.27
2016-04-27T12:16:08.518Z,996.26
2016-04-27T12:17:08.489Z,996.29
2016-04-27T12:18:08.477Z,996.32
2016-04-27T12:19:09.901Z,996.35
2016-04-27T12:20:08.420Z,996.26
2016-04-27T12:21:08.407Z,996.33
2016-04-27T12:22:08.377Z,996.33
2016-04-27T12:23:08.349Z,996.38
2016-04-27T12:24:08.337Z,996.38
2016-04-27T12:25:09.277Z,996.43
2016-04-27T12:26:08.296Z,996.37
2016-04-27T12:27:08.266Z,996.35
2016-04-27T12:28:08.238Z,996.43
2016-04-27T12:29:08.224Z,996.45
2016-04-27T12:30:08.196Z,996.79
2016-04-27T12:31:08.184Z,996.87